Socastee, South Carolina
Current Conditions -  °F | °C
As of 9:45 AM on Saturday 25 Oct 2014 (Local Time) from KMYR Reporting Station
Clear Clear  
Wind Chill: 57°   Ceiling: Unl
Heat Index: 57°   Visibility: 10mi
Dew Point: 48°   Wind: 9mph
Humidity: 72%   Direction: 350°N
Pressure: 30.02"   Gusts: NA
Location:  33.68°N, 79°W
Report Text: KMYR 251345Z 35008KT 10SM CLR 14/09 A3002
Loading
Personal Weather Stations






























Interactive Weather Map
Tropical Storm Tracking
New forecast layout! Learn more

10-Day Weather Forecast

Advertisements
Track Severe Weather on mobile